createdAt,value
2018-08-03T00:00:07.866Z,33.7
2018-08-03T00:01:09.471Z,33.2
2018-08-03T00:02:10.927Z,33.7
2018-08-03T00:03:12.377Z,33.2
2018-08-03T00:04:13.985Z,33.7
2018-08-03T00:05:15.605Z,33.2
2018-08-03T00:06:17.037Z,33.2
2018-08-03T00:07:18.651Z,33.2
2018-08-03T00:08:20.257Z,33.7
2018-08-03T00:09:21.720Z,32.7
2018-08-03T00:10:23.162Z,32.7
2018-08-03T00:11:24.428Z,32.7
2018-08-03T00:12:26.059Z,33.2
2018-08-03T00:13:27.669Z,33.2
2018-08-03T00:14:28.949Z,32.7
2018-08-03T00:15:30.555Z,33.7
2018-08-03T00:16:32.181Z,33.2
2018-08-03T00:17:33.606Z,32.7
2018-08-03T00:18:35.198Z,32.7
2018-08-03T00:19:36.645Z,33.7
2018-08-03T00:20:38.090Z,32.7
2018-08-03T00:21:39.518Z,33.7
2018-08-03T00:22:41.147Z,32.7
2018-08-03T00:23:42.584Z,33.2
2018-08-03T00:24:44.024Z,33.2
2018-08-03T00:25:45.464Z,33.7
2018-08-03T00:26:47.057Z,33.7
2018-08-03T00:27:48.479Z,32.7
2018-08-03T00:28:49.915Z,33.2
2018-08-03T00:29:51.373Z,32.7
2018-08-03T00:30:52.807Z,32.7
2018-08-03T00:31:54.418Z,33.2
2018-08-03T00:32:56.017Z,33.2
2018-08-03T00:33:57.470Z,32.7
2018-08-03T00:34:58.922Z,33.2
2018-08-03T00:36:00.372Z,33.2
2018-08-03T00:37:01.812Z,32.7
2018-08-03T00:38:03.092Z,33.2
2018-08-03T00:39:04.524Z,33.2
2018-08-03T00:40:06.125Z,32.7
2018-08-03T00:41:07.743Z,33.2
2018-08-03T00:42:09.189Z,33.2
2018-08-03T00:43:10.796Z,33.2
2018-08-03T00:44:12.389Z,33.7
2018-08-03T00:45:13.977Z,33.2
2018-08-03T00:46:15.594Z,32.7
2018-08-03T00:47:17.190Z,32.7
2018-08-03T00:48:18.620Z,32.7
2018-08-03T00:49:20.066Z,32.7
2018-08-03T00:50:21.667Z,33.2
2018-08-03T00:51:23.280Z,33.2
2018-08-03T00:52:24.878Z,33.2
2018-08-03T00:53:26.497Z,32.7
2018-08-03T00:54:28.113Z,32.7
2018-08-03T00:55:29.722Z,32.7
2018-08-03T00:56:31.189Z,33.2
2018-08-03T00:57:32.615Z,32.7
2018-08-03T00:58:33.906Z,33.7
2018-08-03T00:59:35.496Z,33.2
2018-08-03T01:00:36.938Z,32.7
2018-08-03T01:01:38.043Z,32.7
2018-08-03T01:02:39.696Z,32.7
2018-08-03T01:03:41.296Z,32.7
2018-08-03T01:04:42.833Z,32.7
2018-08-03T01:05:44.467Z,32.7
2018-08-03T01:06:46.093Z,32.7
2018-08-03T01:07:47.509Z,30.3
2018-08-03T01:08:48.962Z,28.8
2018-08-03T01:09:50.562Z,28.8
2018-08-03T01:10:52.149Z,28.3
2018-08-03T01:11:53.741Z,28.8
2018-08-03T01:12:55.182Z,29.8
2018-08-03T01:13:56.482Z,31.3
2018-08-03T01:14:58.098Z,33.2
2018-08-03T01:15:59.546Z,34.7
2018-08-03T01:17:01.162Z,35.2
2018-08-03T01:18:02.418Z,34.7
2018-08-03T01:19:04.032Z,35.2
2018-08-03T01:20:05.638Z,36.2
2018-08-03T01:21:07.087Z,36.7
2018-08-03T01:22:08.705Z,37.1
2018-08-03T01:23:10.132Z,38.1
2018-08-03T01:24:11.570Z,38.1
2018-08-03T01:25:12.856Z,38.6
2018-08-03T01:26:14.312Z,38.6
2018-08-03T01:27:15.915Z,39.6
2018-08-03T01:28:17.373Z,39.6
2018-08-03T01:29:18.986Z,40.1
2018-08-03T01:30:20.580Z,39.6
2018-08-03T01:31:22.199Z,40.1
2018-08-03T01:32:23.498Z,39.6
2018-08-03T01:33:24.942Z,40.6
2018-08-03T01:34:26.548Z,40.6
2018-08-03T01:35:27.821Z,40.1
2018-08-03T01:36:29.257Z,41.1
2018-08-03T01:37:30.862Z,41.1
2018-08-03T01:38:32.466Z,41.5
2018-08-03T01:39:33.749Z,40.6
2018-08-03T01:40:35.176Z,41.5
2018-08-03T01:41:36.300Z,41.5
2018-08-03T01:42:37.915Z,41.5
2018-08-03T01:43:39.528Z,41.1
2018-08-03T01:44:41.135Z,41.5
2018-08-03T01:45:42.761Z,41.5
2018-08-03T01:46:44.357Z,41.5
2018-08-03T01:47:45.777Z,41.5
2018-08-03T01:48:47.376Z,41.5
2018-08-03T01:49:48.807Z,41.5
2018-08-03T01:50:50.411Z,41.5
2018-08-03T01:51:51.680Z,42
2018-08-03T01:52:53.306Z,41.1
2018-08-03T01:53:54.744Z,41.1
2018-08-03T01:54:56.007Z,42.5
2018-08-03T01:55:57.627Z,41.5
2018-08-03T01:56:58.905Z,41.5
2018-08-03T01:58:00.493Z,41.1
2018-08-03T01:59:02.122Z,41.5
2018-08-03T02:00:03.645Z,41.5
2018-08-03T02:01:05.254Z,41.5
2018-08-03T02:02:06.858Z,42
2018-08-03T02:03:08.223Z,41.5
2018-08-03T02:04:09.846Z,42
2018-08-03T02:05:11.450Z,41.5
2018-08-03T02:06:13.035Z,41.5
2018-08-03T02:07:14.144Z,41.5
2018-08-03T02:08:15.583Z,42
2018-08-03T02:09:17.201Z,41.1
2018-08-03T02:10:18.670Z,40.6
2018-08-03T02:11:20.266Z,42
2018-08-03T02:12:21.866Z,41.5
2018-08-03T02:13:22.967Z,42
2018-08-03T02:14:24.555Z,41.5
2018-08-03T02:15:26.131Z,41.5
2018-08-03T02:16:27.589Z,41.1
2018-08-03T02:17:29.188Z,41.5
2018-08-03T02:18:30.340Z,41.5
2018-08-03T02:19:31.933Z,41.5
2018-08-03T02:20:33.356Z,40.6
2018-08-03T02:21:34.940Z,41.1
2018-08-03T02:22:36.356Z,40.6
2018-08-03T02:23:37.954Z,41.1
2018-08-03T02:24:39.566Z,41.1
2018-08-03T02:25:41.152Z,40.6
2018-08-03T02:26:42.761Z,41.1
2018-08-03T02:27:44.381Z,40.6
2018-08-03T02:28:45.992Z,41.1
2018-08-03T02:29:47.270Z,41.1
2018-08-03T02:30:48.872Z,40.6
2018-08-03T02:31:50.494Z,41.1
2018-08-03T02:32:52.112Z,40.1
2018-08-03T02:33:53.554Z,41.1
2018-08-03T02:34:55.174Z,40.6
2018-08-03T02:35:56.619Z,41.1
2018-08-03T02:36:58.241Z,40.6
2018-08-03T02:37:59.854Z,40.6
2018-08-03T02:39:01.322Z,40.6
2018-08-03T02:40:02.934Z,40.1
2018-08-03T02:41:04.566Z,40.1
2018-08-03T02:42:06.018Z,39.6
2018-08-03T02:43:07.633Z,40.1
2018-08-03T02:44:09.251Z,40.6
2018-08-03T02:45:10.707Z,40.1
2018-08-03T02:46:12.160Z,40.6
2018-08-03T02:47:13.749Z,40.6
2018-08-03T02:48:15.188Z,39.1
2018-08-03T02:49:16.802Z,40.1
2018-08-03T02:50:18.464Z,40.1
2018-08-03T02:51:19.899Z,39.1
2018-08-03T02:52:21.490Z,39.6
2018-08-03T02:53:23.093Z,40.6
2018-08-03T02:54:24.535Z,39.6
2018-08-03T02:55:25.814Z,40.1
2018-08-03T02:56:27.255Z,40.6
2018-08-03T02:57:28.858Z,40.1
2018-08-03T02:58:30.280Z,39.6
2018-08-03T02:59:31.556Z,40.6
2018-08-03T03:00:32.666Z,40.6
2018-08-03T03:01:34.108Z,40.6
2018-08-03T03:02:35.538Z,40.6
2018-08-03T03:03:37.137Z,40.1
2018-08-03T03:04:38.580Z,40.1
2018-08-03T03:05:40.018Z,40.1
2018-08-03T03:06:41.628Z,40.1
2018-08-03T03:07:43.211Z,39.6
2018-08-03T03:08:44.660Z,39.6
2018-08-03T03:09:46.266Z,40.6
2018-08-03T03:10:47.870Z,39.6
2018-08-03T03:11:49.310Z,39.6
2018-08-03T03:12:50.926Z,39.6
2018-08-03T03:13:52.027Z,39.6
2018-08-03T03:14:53.457Z,39.6
2018-08-03T03:15:55.090Z,39.1
2018-08-03T03:16:56.684Z,39.6
2018-08-03T03:17:58.282Z,39.1
2018-08-03T03:18:59.703Z,39.1
2018-08-03T03:20:01.190Z,39.6
2018-08-03T03:21:02.806Z,39.6
2018-08-03T03:22:04.407Z,40.6
2018-08-03T03:23:06.007Z,39.6
2018-08-03T03:24:07.445Z,39.6
2018-08-03T03:25:09.037Z,39.6
2018-08-03T03:26:10.499Z,40.1
2018-08-03T03:27:12.103Z,40.1
2018-08-03T03:28:13.713Z,39.6
2018-08-03T03:29:15.313Z,41.1
2018-08-03T03:30:16.916Z,40.6
2018-08-03T03:31:18.238Z,40.6
2018-08-03T03:32:19.847Z,41.5
2018-08-03T03:33:21.429Z,41.5
2018-08-03T03:34:23.134Z,41.5
2018-08-03T03:35:24.566Z,41.5
2018-08-03T03:36:26.206Z,41.5
2018-08-03T03:37:27.810Z,41.5
2018-08-03T03:38:29.407Z,41.1
2018-08-03T03:39:30.849Z,41.5
2018-08-03T03:40:32.483Z,41.5
2018-08-03T03:41:34.084Z,41.5
2018-08-03T03:42:35.689Z,42
2018-08-03T03:43:37.125Z,42
2018-08-03T03:44:38.412Z,42
2018-08-03T03:45:40.490Z,42
2018-08-03T03:46:42.159Z,41.1
2018-08-03T03:47:43.758Z,42
2018-08-03T03:48:45.357Z,42.5
2018-08-03T03:49:46.653Z,42.5
2018-08-03T03:50:48.246Z,42
2018-08-03T03:51:49.685Z,41.1
2018-08-03T03:52:51.279Z,42.5
2018-08-03T03:53:52.569Z,42.5
2018-08-03T03:54:54.180Z,41.5
2018-08-03T03:55:55.614Z,41.5
2018-08-03T03:56:57.209Z,41.5
2018-08-03T03:57:58.817Z,42
2018-08-03T03:59:00.421Z,42
2018-08-03T04:00:02.038Z,41.5
2018-08-03T04:01:03.649Z,42
2018-08-03T04:02:05.260Z,41.5
2018-08-03T04:03:06.890Z,41.1
2018-08-03T04:04:08.580Z,41.1
2018-08-03T04:05:09.897Z,41.1
2018-08-03T04:06:11.501Z,41.1
2018-08-03T04:07:12.956Z,41.5
2018-08-03T04:08:14.420Z,41.5
2018-08-03T04:09:15.881Z,41.5
2018-08-03T04:10:17.503Z,42
2018-08-03T04:11:19.070Z,41.1
2018-08-03T04:12:21.025Z,41.5
2018-08-03T04:13:22.497Z,41.5
2018-08-03T04:14:24.097Z,41.5
2018-08-03T04:15:25.729Z,41.1
2018-08-03T04:16:27.346Z,40.6
2018-08-03T04:17:28.617Z,41.1
2018-08-03T04:18:30.198Z,41.5
2018-08-03T04:19:31.793Z,41.5
2018-08-03T04:20:33.383Z,41.1
2018-08-03T04:21:34.979Z,41.5
2018-08-03T04:22:36.465Z,41.1
2018-08-03T04:23:38.138Z,42
2018-08-03T04:24:39.766Z,41.1
2018-08-03T04:25:41.881Z,40.6
2018-08-03T04:26:43.510Z,41.1
2018-08-03T04:27:44.951Z,41.1
2018-08-03T04:28:46.406Z,40.6
2018-08-03T04:29:47.668Z,41.1
2018-08-03T04:30:49.110Z,41.1
2018-08-03T04:31:50.736Z,41.1
2018-08-03T04:32:52.333Z,41.1
2018-08-03T04:33:53.771Z,40.6
2018-08-03T04:34:55.211Z,40.6
2018-08-03T04:35:56.657Z,40.1
2018-08-03T04:36:58.286Z,41.1
2018-08-03T04:37:59.898Z,41.5
2018-08-03T04:39:01.514Z,41.1
2018-08-03T04:40:03.279Z,40.6
2018-08-03T04:41:04.708Z,40.1
2018-08-03T04:42:06.508Z,40.6
2018-08-03T04:43:07.996Z,41.1
2018-08-03T04:44:09.456Z,40.1
2018-08-03T04:45:11.078Z,41.5
2018-08-03T04:46:12.687Z,40.6
2018-08-03T04:47:14.106Z,40.1
2018-08-03T04:48:15.548Z,40.1
2018-08-03T04:49:17.195Z,40.6
2018-08-03T04:50:18.698Z,40.1
2018-08-03T04:51:20.402Z,40.6
2018-08-03T04:52:22.010Z,40.6
2018-08-03T04:53:23.607Z,40.6
2018-08-03T04:54:25.040Z,40.1
2018-08-03T04:55:26.324Z,40.6
2018-08-03T04:56:27.765Z,40.1
2018-08-03T04:57:29.375Z,40.1
2018-08-03T04:58:30.798Z,40.6
2018-08-03T04:59:32.406Z,40.1
2018-08-03T05:00:33.845Z,40.1
2018-08-03T05:01:35.429Z,40.1
2018-08-03T05:02:37.033Z,39.6
2018-08-03T05:03:38.465Z,40.6
2018-08-03T05:04:40.074Z,40.1
2018-08-03T05:05:41.738Z,40.1
2018-08-03T05:06:43.357Z,40.1
2018-08-03T05:07:44.976Z,39.1
2018-08-03T05:08:46.595Z,39.6
2018-08-03T05:09:48.032Z,40.1
2018-08-03T05:10:49.468Z,40.1
2018-08-03T05:11:51.077Z,40.6
2018-08-03T05:12:52.353Z,39.6
2018-08-03T05:13:53.960Z,39.6
2018-08-03T05:14:55.569Z,39.6
2018-08-03T05:15:57.067Z,39.1
2018-08-03T05:16:58.673Z,40.1
2018-08-03T05:18:00.274Z,40.1
2018-08-03T05:19:01.399Z,40.1
2018-08-03T05:20:02.840Z,39.6
2018-08-03T05:21:04.443Z,40.1
2018-08-03T05:22:05.882Z,39.6
2018-08-03T05:23:07.332Z,39.6
2018-08-03T05:24:09.014Z,40.1
2018-08-03T05:25:10.698Z,40.1
2018-08-03T05:26:12.136Z,39.6
2018-08-03T05:27:13.724Z,40.1
2018-08-03T05:28:15.017Z,39.1
2018-08-03T05:29:16.647Z,40.6
2018-08-03T05:30:18.381Z,39.6
2018-08-03T05:31:20.071Z,39.6
2018-08-03T05:32:21.334Z,39.6
2018-08-03T05:33:22.792Z,40.6
2018-08-03T05:34:24.391Z,40.1
2018-08-03T05:35:26.184Z,39.6
2018-08-03T05:36:27.543Z,40.1
2018-08-03T05:37:29.170Z,40.6
2018-08-03T05:38:30.780Z,40.6
2018-08-03T05:39:32.399Z,40.6
2018-08-03T05:40:34.007Z,40.6
2018-08-03T05:41:35.609Z,41.1
2018-08-03T05:42:37.766Z,41.5
2018-08-03T05:43:39.649Z,41.1
2018-08-03T05:44:41.250Z,42
2018-08-03T05:45:42.849Z,41.5
2018-08-03T05:46:44.283Z,41.1
2018-08-03T05:47:45.912Z,41.5
2018-08-03T05:48:47.515Z,41.5
2018-08-03T05:49:49.168Z,42.5
2018-08-03T05:50:50.776Z,42.5
2018-08-03T05:51:52.372Z,42
2018-08-03T05:52:53.987Z,41.5
2018-08-03T05:53:55.622Z,41.1
2018-08-03T05:54:57.204Z,42
2018-08-03T05:55:58.646Z,42.5
2018-08-03T05:56:59.915Z,42
2018-08-03T05:58:01.801Z,42
2018-08-03T05:59:03.583Z,42
2018-08-03T06:00:05.189Z,41.5
2018-08-03T06:01:06.811Z,41.5
2018-08-03T06:02:08.080Z,42
2018-08-03T06:03:09.691Z,41.1
2018-08-03T06:04:11.165Z,42
2018-08-03T06:05:12.623Z,42
2018-08-03T06:06:14.081Z,42
2018-08-03T06:07:15.527Z,42
2018-08-03T06:08:17.492Z,42
2018-08-03T06:09:18.730Z,42.5
2018-08-03T06:10:20.179Z,42
2018-08-03T06:11:21.772Z,42.5
2018-08-03T06:12:23.364Z,42.5
2018-08-03T06:13:24.996Z,42
2018-08-03T06:14:26.610Z,41.5
2018-08-03T06:15:28.216Z,41.5
2018-08-03T06:16:29.855Z,42.5
2018-08-03T06:17:31.134Z,42
2018-08-03T06:18:32.413Z,42
2018-08-03T06:19:34.101Z,41.1
2018-08-03T06:20:35.932Z,42
2018-08-03T06:21:37.653Z,41.1
2018-08-03T06:22:39.265Z,41.5
2018-08-03T06:23:40.711Z,41.1
2018-08-03T06:24:42.147Z,41.5
2018-08-03T06:25:43.752Z,41.5
2018-08-03T06:26:45.186Z,41.5
2018-08-03T06:27:46.461Z,41.1
2018-08-03T06:28:48.080Z,41.5
2018-08-03T06:29:50.092Z,41.5
2018-08-03T06:30:51.759Z,41.1
2018-08-03T06:31:53.431Z,41.1
2018-08-03T06:32:54.877Z,41.1
2018-08-03T06:33:56.506Z,41.5
2018-08-03T06:34:58.159Z,41.5
2018-08-03T06:35:59.594Z,41.1
2018-08-03T06:37:01.214Z,42
2018-08-03T06:38:02.818Z,41.1
2018-08-03T06:39:04.278Z,42
2018-08-03T06:40:05.740Z,41.5
2018-08-03T06:41:07.332Z,41.1
2018-08-03T06:42:08.941Z,41.5
2018-08-03T06:43:10.378Z,41.1
2018-08-03T06:44:11.991Z,41.1
2018-08-03T06:45:13.597Z,40.6
2018-08-03T06:46:14.876Z,41.5
2018-08-03T06:47:16.494Z,42
2018-08-03T06:48:18.256Z,40.6
2018-08-03T06:49:19.925Z,41.1
2018-08-03T06:50:21.518Z,40.6
2018-08-03T06:51:23.127Z,41.1
2018-08-03T06:52:24.412Z,41.1
2018-08-03T06:53:26.025Z,40.6
2018-08-03T06:54:27.631Z,41.1
2018-08-03T06:55:29.097Z,41.1
2018-08-03T06:56:30.725Z,41.1
2018-08-03T06:57:32.493Z,41.1
2018-08-03T06:58:34.267Z,41.1
2018-08-03T06:59:35.742Z,40.1
2018-08-03T07:00:37.206Z,40.6
2018-08-03T07:01:38.856Z,41.1
2018-08-03T07:02:40.551Z,40.1
2018-08-03T07:03:42.253Z,40.6
2018-08-03T07:04:43.889Z,40.6
2018-08-03T07:05:45.512Z,41.5
2018-08-03T07:06:47.109Z,41.1
2018-08-03T07:07:48.558Z,40.1
2018-08-03T07:08:50.016Z,40.1
2018-08-03T07:09:51.631Z,41.1
2018-08-03T07:10:53.228Z,40.1
2018-08-03T07:11:54.828Z,40.1
2018-08-03T07:12:56.423Z,40.6
2018-08-03T07:13:58.023Z,40.6
2018-08-03T07:15:00.067Z,40.6
2018-08-03T07:16:01.944Z,40.1
2018-08-03T07:17:03.636Z,40.1
2018-08-03T07:18:05.071Z,39.6
2018-08-03T07:19:06.607Z,40.1
2018-08-03T07:20:08.831Z,39.6
2018-08-03T07:21:10.874Z,40.1
2018-08-03T07:22:12.477Z,40.6
2018-08-03T07:23:13.913Z,40.1
2018-08-03T07:24:15.372Z,39.6
2018-08-03T07:25:16.968Z,40.1
2018-08-03T07:26:18.410Z,40.1
2018-08-03T07:27:19.833Z,40.6
2018-08-03T07:28:21.483Z,40.1
2018-08-03T07:29:23.095Z,40.1
2018-08-03T07:30:24.692Z,41.1
2018-08-03T07:31:25.967Z,40.6
2018-08-03T07:32:27.259Z,39.6
2018-08-03T07:33:28.695Z,40.1
2018-08-03T07:34:30.308Z,40.6
2018-08-03T07:35:31.728Z,40.6
2018-08-03T07:36:33.347Z,40.6
2018-08-03T07:37:34.963Z,40.6
2018-08-03T07:38:36.065Z,40.6
2018-08-03T07:39:37.663Z,42
2018-08-03T07:40:39.115Z,41.5
2018-08-03T07:41:40.574Z,41.1
2018-08-03T07:42:41.869Z,41.1
2018-08-03T07:43:43.305Z,41.1
2018-08-03T07:44:44.987Z,41.5
2018-08-03T07:45:46.430Z,42.5
2018-08-03T07:46:48.029Z,41.5
2018-08-03T07:47:49.634Z,41.1
2018-08-03T07:48:51.289Z,42
2018-08-03T07:49:52.748Z,41.5
2018-08-03T07:50:54.041Z,42
2018-08-03T07:51:55.651Z,41.5
2018-08-03T07:52:57.245Z,42
2018-08-03T07:53:58.683Z,42.5
2018-08-03T07:55:00.286Z,41.5
2018-08-03T07:56:01.888Z,42
2018-08-03T07:57:03.484Z,42
2018-08-03T07:59:21.394Z,42
2018-08-03T08:00:22.829Z,42.5
2018-08-03T08:01:24.279Z,42.5
2018-08-03T08:02:25.726Z,42
2018-08-03T08:03:27.166Z,42
2018-08-03T08:04:28.772Z,42.5
2018-08-03T08:05:30.387Z,42
2018-08-03T08:06:31.843Z,42
2018-08-03T08:07:33.538Z,42
2018-08-03T08:08:34.984Z,41.5
2018-08-03T08:09:36.572Z,42.5
2018-08-03T08:10:38.310Z,41.1
2018-08-03T08:11:39.735Z,42.5
2018-08-03T08:12:41.194Z,41.5
2018-08-03T08:13:42.478Z,41.5
2018-08-03T08:14:43.760Z,42
2018-08-03T08:15:45.388Z,42
2018-08-03T08:16:46.836Z,42
2018-08-03T08:17:48.451Z,41.5
2018-08-03T08:18:49.888Z,42
2018-08-03T08:19:51.323Z,42
2018-08-03T08:20:52.764Z,41.5
2018-08-03T08:21:54.366Z,41.5
2018-08-03T08:22:55.796Z,41.5
2018-08-03T08:23:57.228Z,41.1
2018-08-03T08:24:58.836Z,41.1
2018-08-03T08:26:00.408Z,41.5
2018-08-03T08:27:01.925Z,41.1
2018-08-03T08:28:03.529Z,41.5
2018-08-03T08:29:04.966Z,41.1
2018-08-03T08:30:06.582Z,42
2018-08-03T08:31:08.026Z,41.5
2018-08-03T08:32:09.500Z,41.5
2018-08-03T08:33:10.942Z,41.5
2018-08-03T08:34:12.525Z,41.5
2018-08-03T08:35:13.969Z,41.1
2018-08-03T08:36:15.401Z,41.5
2018-08-03T08:37:17.026Z,41.5
2018-08-03T08:38:18.663Z,40.6
2018-08-03T08:39:20.114Z,40.6
2018-08-03T08:40:21.557Z,41.1
2018-08-03T08:41:23.162Z,41.5
2018-08-03T08:42:24.618Z,40.6
2018-08-03T08:43:26.470Z,41.5
2018-08-03T08:44:28.208Z,41.1
2018-08-03T08:45:29.806Z,40.6
2018-08-03T08:46:31.432Z,41.1
2018-08-03T08:47:32.884Z,41.1
2018-08-03T08:48:34.517Z,41.5
2018-08-03T08:49:36.187Z,41.1
2018-08-03T08:50:37.677Z,41.1
2018-08-03T08:51:39.371Z,41.1
2018-08-03T08:52:40.992Z,41.1
2018-08-03T08:53:42.447Z,40.6
2018-08-03T08:54:44.367Z,40.6
2018-08-03T08:55:46.001Z,40.1
2018-08-03T08:56:47.630Z,41.1
2018-08-03T08:57:49.247Z,40.6
2018-08-03T08:58:50.695Z,41.1
2018-08-03T08:59:52.318Z,41.5
2018-08-03T09:00:54.367Z,40.6
2018-08-03T09:01:56.149Z,40.6
2018-08-03T09:02:57.778Z,40.1
2018-08-03T09:03:59.452Z,40.6
2018-08-03T09:05:01.071Z,40.6
2018-08-03T09:06:02.508Z,40.6
2018-08-03T09:07:04.111Z,40.1
2018-08-03T09:08:05.224Z,41.1
2018-08-03T09:09:06.710Z,41.1
2018-08-03T09:10:08.315Z,40.6
2018-08-03T09:11:09.908Z,40.1
2018-08-03T09:12:11.509Z,40.6
2018-08-03T09:13:13.446Z,40.1
2018-08-03T09:14:15.187Z,40.6
2018-08-03T09:15:16.805Z,40.1
2018-08-03T09:16:18.434Z,40.6
2018-08-03T09:17:20.061Z,40.6
2018-08-03T09:18:21.973Z,40.1
2018-08-03T09:19:23.750Z,41.1
2018-08-03T09:20:25.358Z,40.1
2018-08-03T09:21:26.991Z,40.1
2018-08-03T09:22:28.647Z,40.6
2018-08-03T09:23:30.256Z,40.6
2018-08-03T09:24:31.993Z,40.1
2018-08-03T09:25:33.489Z,40.6
2018-08-03T09:26:35.092Z,40.1
2018-08-03T09:27:36.706Z,40.1
2018-08-03T09:28:38.318Z,40.1
2018-08-03T09:29:39.767Z,40.1
2018-08-03T09:30:41.395Z,40.1
2018-08-03T09:31:42.827Z,40.1
2018-08-03T09:32:44.436Z,41.1
2018-08-03T09:33:45.569Z,40.6
2018-08-03T09:34:47.204Z,40.1
2018-08-03T09:35:48.824Z,40.1
2018-08-03T09:36:50.451Z,41.1
2018-08-03T09:37:51.916Z,41.1
2018-08-03T09:38:53.534Z,41.5
2018-08-03T09:39:55.134Z,41.1
2018-08-03T09:40:56.776Z,41.1
2018-08-03T09:41:58.236Z,40.6
2018-08-03T09:42:59.917Z,41.5
2018-08-03T09:44:01.838Z,42
2018-08-03T09:45:03.459Z,42
2018-08-03T09:46:04.901Z,41.5
2018-08-03T09:47:06.367Z,42
2018-08-03T09:48:07.967Z,42
2018-08-03T09:49:09.761Z,42
2018-08-03T09:50:11.455Z,42
2018-08-03T09:51:13.064Z,42
2018-08-03T09:52:14.670Z,42
2018-08-03T09:53:16.121Z,42
2018-08-03T09:54:17.721Z,42
2018-08-03T09:55:19.399Z,42
2018-08-03T09:56:21.187Z,42
2018-08-03T09:57:22.635Z,41.5
2018-08-03T09:58:24.093Z,42.5
2018-08-03T09:59:25.527Z,42.5
2018-08-03T10:00:27.132Z,42.5
2018-08-03T10:01:28.731Z,42.5
2018-08-03T10:02:30.207Z,42.5
2018-08-03T10:03:31.834Z,42
2018-08-03T10:04:33.444Z,42
2018-08-03T10:05:35.114Z,42.5
2018-08-03T10:06:36.392Z,41.5
2018-08-03T10:07:37.997Z,41.5
2018-08-03T10:08:39.819Z,43
2018-08-03T10:09:41.429Z,41.5
2018-08-03T10:10:42.875Z,41.5
2018-08-03T10:11:44.536Z,42
2018-08-03T10:12:46.109Z,41.5
2018-08-03T10:13:47.581Z,41.5
2018-08-03T10:14:49.207Z,42
2018-08-03T10:15:50.843Z,42
2018-08-03T10:16:52.459Z,41.5
2018-08-03T10:17:54.073Z,42
2018-08-03T10:18:55.688Z,42
2018-08-03T10:19:57.319Z,42
2018-08-03T10:20:58.962Z,42
2018-08-03T10:22:00.426Z,42
2018-08-03T10:23:02.025Z,42
2018-08-03T10:24:03.635Z,41.5
2018-08-03T10:25:05.100Z,42
2018-08-03T10:26:06.549Z,41.1
2018-08-03T10:27:07.972Z,42
2018-08-03T10:28:09.604Z,41.5
2018-08-03T10:29:11.218Z,41.5
2018-08-03T10:30:12.842Z,41.5
2018-08-03T10:31:14.498Z,41.1
2018-08-03T10:32:16.123Z,41.5
2018-08-03T10:33:17.568Z,42
2018-08-03T10:34:19.191Z,41.1
2018-08-03T10:35:20.829Z,41.1
2018-08-03T10:36:22.269Z,41.1
2018-08-03T10:37:23.725Z,41.5
2018-08-03T10:38:25.182Z,41.1
2018-08-03T10:39:26.651Z,41.5
2018-08-03T10:40:28.095Z,41.5
2018-08-03T10:41:29.384Z,40.6
2018-08-03T10:42:30.995Z,41.1
2018-08-03T10:43:32.493Z,41.1
2018-08-03T10:44:33.983Z,40.6
2018-08-03T10:45:35.563Z,41.1
2018-08-03T10:46:37.270Z,41.5
2018-08-03T10:47:38.597Z,41.1
2018-08-03T10:48:40.434Z,41.1
2018-08-03T10:49:42.198Z,40.6
2018-08-03T10:50:43.816Z,41.1
2018-08-03T10:51:45.418Z,40.6
2018-08-03T10:52:47.017Z,41.1
2018-08-03T10:53:48.622Z,41.1
2018-08-03T10:54:50.234Z,40.6
2018-08-03T10:55:51.705Z,41.1
2018-08-03T10:56:53.362Z,40.6
2018-08-03T10:57:54.804Z,41.1
2018-08-03T10:58:56.266Z,41.1
2018-08-03T10:59:57.940Z,41.1
2018-08-03T11:00:59.551Z,40.6
2018-08-03T11:02:01.186Z,40.6
2018-08-03T11:03:02.817Z,41.5
2018-08-03T11:04:04.446Z,40.1
2018-08-03T11:05:05.895Z,41.1
2018-08-03T11:06:07.543Z,40.6
2018-08-03T11:07:09.194Z,41.1
2018-08-03T11:08:10.816Z,41.1
2018-08-03T11:09:12.430Z,40.6
2018-08-03T11:10:14.055Z,40.6
2018-08-03T11:11:15.504Z,40.6
2018-08-03T11:12:17.106Z,40.1
2018-08-03T11:13:18.913Z,40.6
2018-08-03T11:14:20.548Z,40.6
2018-08-03T11:15:21.672Z,40.6
2018-08-03T11:16:23.343Z,40.6
2018-08-03T11:17:24.959Z,40.6
2018-08-03T11:18:26.590Z,41.1
2018-08-03T11:19:28.208Z,40.1
2018-08-03T11:20:29.834Z,40.1
2018-08-03T11:21:31.437Z,40.6
2018-08-03T11:22:32.893Z,40.6
2018-08-03T11:23:34.515Z,40.1
2018-08-03T11:24:35.971Z,40.1
2018-08-03T11:25:37.415Z,40.6
2018-08-03T11:26:38.899Z,40.1
2018-08-03T11:27:40.155Z,40.1
2018-08-03T11:28:41.616Z,40.6
2018-08-03T11:29:43.521Z,40.6
2018-08-03T11:30:45.306Z,40.1
2018-08-03T11:31:46.943Z,39.6
2018-08-03T11:32:48.576Z,39.1
2018-08-03T11:33:50.018Z,40.1
2018-08-03T11:34:51.651Z,40.6
2018-08-03T11:35:53.266Z,39.6
2018-08-03T11:36:54.729Z,40.6
2018-08-03T11:37:56.349Z,41.1
2018-08-03T11:38:57.954Z,40.6
2018-08-03T11:39:59.410Z,41.1
2018-08-03T11:41:01.025Z,40.6
2018-08-03T11:42:02.675Z,40.6
2018-08-03T11:44:13.700Z,41.5
2018-08-03T11:45:15.332Z,41.1
2018-08-03T11:46:16.972Z,41.5
2018-08-03T11:47:18.578Z,41.5
2018-08-03T11:48:20.474Z,41.5
2018-08-03T11:49:22.272Z,41.5
2018-08-03T11:50:23.903Z,42.5
2018-08-03T11:51:25.512Z,41.5
2018-08-03T11:52:27.133Z,41.5
2018-08-03T11:53:28.587Z,42.5
2018-08-03T11:54:30.234Z,42.5
2018-08-03T11:55:31.750Z,42
2018-08-03T11:56:33.212Z,42.5
2018-08-03T11:57:34.829Z,42.5
2018-08-03T11:58:36.507Z,42.5
2018-08-03T11:59:38.204Z,43
2018-08-03T12:00:39.659Z,42
2018-08-03T12:01:41.294Z,42.5
2018-08-03T12:02:42.759Z,42
2018-08-03T12:03:44.234Z,42.5
2018-08-03T12:04:45.672Z,42.5
2018-08-03T12:05:47.152Z,42.5
2018-08-03T12:06:48.623Z,42.5
2018-08-03T12:07:50.645Z,42.5
2018-08-03T12:08:52.354Z,42.5
2018-08-03T12:09:53.977Z,42
2018-08-03T12:10:55.600Z,42
2018-08-03T12:11:57.100Z,42
2018-08-03T12:12:58.776Z,42.5
2018-08-03T12:14:00.280Z,42.5
2018-08-03T12:15:01.606Z,42.5
2018-08-03T12:16:03.289Z,42
2018-08-03T12:17:04.909Z,42
2018-08-03T12:18:06.388Z,42.5
2018-08-03T12:19:08.030Z,42.5
2018-08-03T12:20:09.342Z,42
2018-08-03T12:21:11.029Z,42
2018-08-03T12:22:12.657Z,42.5
2018-08-03T12:23:14.122Z,42
2018-08-03T12:24:15.739Z,42.5
2018-08-03T12:25:17.079Z,42.5
2018-08-03T12:26:18.736Z,42
2018-08-03T12:27:20.000Z,42
2018-08-03T12:28:21.454Z,42
2018-08-03T12:29:22.880Z,42
2018-08-03T12:30:24.536Z,42
2018-08-03T12:31:26.299Z,41.5
2018-08-03T12:32:27.821Z,42
2018-08-03T12:33:29.106Z,42
2018-08-03T12:34:30.703Z,42
2018-08-03T12:35:32.328Z,41.1
2018-08-03T12:36:33.945Z,41.5
2018-08-03T12:37:35.251Z,40.6
2018-08-03T12:38:36.875Z,41.5
2018-08-03T12:39:38.339Z,41.1
2018-08-03T12:40:39.957Z,41.1
2018-08-03T12:41:41.436Z,41.5
2018-08-03T12:42:42.912Z,41.5
2018-08-03T12:43:44.368Z,41.5
2018-08-03T12:44:45.819Z,41.1
2018-08-03T12:45:47.102Z,41.5
2018-08-03T12:46:48.403Z,41.5
2018-08-03T12:47:50.022Z,40.6
2018-08-03T12:48:51.635Z,41.5
2018-08-03T12:49:53.285Z,41.5
2018-08-03T12:50:54.904Z,41.5
2018-08-03T12:51:56.390Z,41.5
2018-08-03T12:52:58.447Z,40.6
2018-08-03T12:54:00.323Z,41.5
2018-08-03T12:55:01.784Z,41.1
2018-08-03T12:56:03.414Z,41.5
2018-08-03T12:57:04.879Z,40.6
2018-08-03T12:58:06.487Z,41.1
2018-08-03T12:59:07.942Z,41.1
2018-08-03T13:00:09.577Z,41.1
2018-08-03T13:01:11.467Z,41.1
2018-08-03T13:02:13.202Z,42
2018-08-03T13:03:14.855Z,41.1
2018-08-03T13:04:16.659Z,41.1
2018-08-03T13:05:18.463Z,41.1
2018-08-03T13:06:19.898Z,41.1
2018-08-03T13:07:22.130Z,41.1
2018-08-03T13:08:24.860Z,40.6
2018-08-03T13:09:27.393Z,39.6
2018-08-03T13:10:29.046Z,40.6
2018-08-03T13:11:30.678Z,40.1
2018-08-03T13:12:32.012Z,40.6
2018-08-03T13:13:33.616Z,40.1
2018-08-03T13:14:35.240Z,40.6
2018-08-03T13:15:36.856Z,40.6
2018-08-03T13:16:38.310Z,40.6
2018-08-03T13:17:39.744Z,40.6
2018-08-03T13:18:41.406Z,40.6
2018-08-03T13:19:42.883Z,40.1
2018-08-03T13:20:44.503Z,40.6
2018-08-03T13:21:45.934Z,40.6
2018-08-03T13:22:47.543Z,40.1
2018-08-03T13:23:48.988Z,40.1
2018-08-03T13:24:50.436Z,40.1
2018-08-03T13:25:51.889Z,40.1
2018-08-03T13:26:53.328Z,39.6
2018-08-03T13:27:54.790Z,40.6
2018-08-03T13:28:56.257Z,40.6
2018-08-03T13:29:57.871Z,40.1
2018-08-03T13:30:59.498Z,39.6
2018-08-03T13:32:01.124Z,39.6
2018-08-03T13:33:02.615Z,40.6
2018-08-03T13:34:04.314Z,40.1
2018-08-03T13:35:05.929Z,39.6
2018-08-03T13:36:07.357Z,40.1
2018-08-03T13:37:08.651Z,40.6
2018-08-03T13:38:10.272Z,40.6
2018-08-03T13:39:12.231Z,40.6
2018-08-03T13:40:13.518Z,40.6
2018-08-03T13:41:14.983Z,40.6
2018-08-03T13:42:16.619Z,41.1
2018-08-03T13:43:18.228Z,41.1
2018-08-03T13:44:19.838Z,41.5
2018-08-03T13:45:21.455Z,40.1
2018-08-03T13:46:22.912Z,41.1
2018-08-03T13:47:24.508Z,41.1
2018-08-03T13:48:26.137Z,42